Local Weather
17097
page-template-default,page,page-id-17097,bridge-core-1.0.4,ajax_fade,page_not_loaded,,hide_top_bar_on_mobile_header,qode-child-theme-ver-1.0.0,qode-theme-ver-18.0.9,qode-theme-bridge,qode_header_in_grid,wpb-js-composer js-comp-ver-4.11.2.1,vc_responsive
 

LOCAL WEATHER

METAR & TAF for EGTK Oxford

Available data for EGTK from the past hour
OXFORD
Metar
EGTK 171620Z 25013KT 220V280 CAVOK 20/08 Q1004

16:20 UTC

Wind: 250° 13kt

Visibility:

Sky:

Temp: 20 deg C / 68 deg F

Dewpoint: 8 deg C / 46.4 deg F

Pressure: 1004 hPa

TAF
TAF EGTK 171404Z 1715/1722 24015KT 9999 FEW025 PROB40 TEMPO 1715/1717 24018G28KT BECMG 1718/1721 23005KT